Time;durP1;ratioP1;P1;durP2;ratioP2;P2;SDS_P1;SDS_P2;PMS_P1;PMS_P2;Temp;Humidity;BMP_temperature;BMP_pressure;BME280_temperature;BME280_humidity;BME280_pressure;Samples;Min_cycle;Max_cycle;Signal;HPM_P1;HPM_P2
2023/04/13 00:01:00;;;;;;;4.10;1.30;;;8.30;80.70;;;;;;5048874;28;20036;-69
2023/04/13 00:03:29;;;;;;;3.55;1.20;;;8.30;81.20;;;;;;5044585;28;20510;-67
2023/04/13 00:05:55;;;;;;;3.45;1.38;;;8.20;81.50;;;;;;5046720;28;20086;-67
2023/04/13 00:08:21;;;;;;;3.67;1.30;;;8.20;81.60;;;;;;5049159;28;20032;-66
2023/04/13 00:10:49;;;;;;;2.38;1.30;;;8.20;81.70;;;;;;5045494;28;20056;-68
2023/04/13 00:13:17;;;;;;;2.20;1.13;;;8.10;81.90;;;;;;5048781;28;20032;-67
2023/04/13 00:15:43;;;;;;;3.42;1.35;;;8.10;82.00;;;;;;5048788;28;20030;-67
2023/04/13 00:18:09;;;;;;;3.67;1.30;;;8.10;82.00;;;;;;5047282;28;20364;-66
2023/04/13 00:20:35;;;;;;;3.80;1.30;;;8.10;82.10;;;;;;5045845;28;20029;-65
2023/04/13 00:23:01;;;;;;;1.70;1.08;;;8.10;82.30;;;;;;5046866;28;20029;-66
2023/04/13 00:25:28;;;;;;;2.47;1.20;;;8.10;82.30;;;;;;5048490;28;20079;-67
2023/04/13 00:27:53;;;;;;;1.63;1.10;;;8.10;82.40;;;;;;5048343;28;20025;-68
2023/04/13 00:30:20;;;;;;;3.60;1.33;;;8.10;82.50;;;;;;5049015;28;20617;-66
2023/04/13 00:32:46;;;;;;;1.40;1.23;;;8.10;82.40;;;;;;5048579;28;20056;-66
2023/04/13 00:35:23;;;;;;;2.40;1.30;;;8.00;82.40;;;;;;5032050;28;20043;-67
2023/04/13 00:37:50;;;;;;;1.83;1.20;;;8.00;82.50;;;;;;5048801;28;20029;-65
2023/04/13 00:40:16;;;;;;;1.52;1.00;;;8.10;82.70;;;;;;5044931;28;20050;-67
2023/04/13 00:42:44;;;;;;;2.03;1.10;;;8.10;82.60;;;;;;5048358;28;20033;-67
2023/04/13 00:45:11;;;;;;;2.03;1.33;;;8.10;82.60;;;;;;5048591;28;20028;-66
2023/04/13 00:47:36;;;;;;;1.63;1.10;;;8.00;82.80;;;;;;5047739;28;20024;-66
2023/04/13 00:50:04;;;;;;;1.83;1.15;;;8.00;83.00;;;;;;5046413;28;20048;-66
2023/04/13 00:52:33;;;;;;;2.55;1.20;;;8.00;83.20;;;;;;5048025;28;20158;-65
2023/04/13 00:55:01;;;;;;;2.30;1.17;;;8.00;83.30;;;;;;5047388;28;20076;-67
2023/04/13 00:57:27;;;;;;;4.20;1.48;;;8.00;83.50;;;;;;5046130;28;20021;-67
2023/04/13 00:59:54;;;;;;;1.90;1.00;;;8.00;83.80;;;;;;5047579;28;20753;-67
2023/04/13 01:02:25;;;;;;;1.90;1.13;;;8.00;84.00;;;;;;5047143;28;20029;-65
2023/04/13 01:04:53;;;;;;;2.80;1.17;;;8.00;84.40;;;;;;5031024;28;20090;-66
2023/04/13 01:07:41;;;;;;;3.20;1.30;;;8.00;85.00;;;;;;5047631;28;20028;-68
2023/04/13 01:10:17;;;;;;;2.95;1.33;;;7.90;85.30;;;;;;5007281;28;20044;-66
2023/04/13 01:12:55;;;;;;;2.67;1.60;;;7.90;86.00;;;;;;5046310;28;20526;-66
2023/04/13 01:15:22;;;;;;;4.18;1.40;;;7.90;86.50;;;;;;5047572;28;20029;-68
2023/04/13 01:17:56;;;;;;;2.83;1.52;;;7.90;86.80;;;;;;5049537;28;20024;-66
2023/04/13 01:20:25;;;;;;;3.13;1.40;;;7.90;87.40;;;;;;5047632;28;20112;-66
2023/04/13 01:22:59;;;;;;;2.80;1.20;;;7.90;87.50;;;;;;5047592;28;20071;-66
2023/04/13 01:25:53;;;;;;;3.00;1.52;;;7.90;87.70;;;;;;5047427;28;20037;-65
2023/04/13 01:28:21;;;;;;;3.35;1.60;;;7.90;88.00;;;;;;5046677;28;20446;-65
2023/04/13 01:30:48;;;;;;;3.53;1.80;;;7.90;88.70;;;;;;5047991;28;20052;-65
2023/04/13 01:33:15;;;;;;;2.38;1.40;;;7.80;89.30;;;;;;5046925;28;20020;-65
2023/04/13 01:35:41;;;;;;;2.75;1.52;;;7.80;90.10;;;;;;5048031;28;20017;-64
2023/04/13 01:38:07;;;;;;;2.15;1.45;;;7.80;89.80;;;;;;5046740;28;20108;-65
2023/04/13 01:40:35;;;;;;;2.85;1.40;;;7.80;90.00;;;;;;5047415;28;20021;-64
2023/04/13 01:43:02;;;;;;;3.40;1.52;;;7.80;90.20;;;;;;5048114;28;20104;-65
2023/04/13 01:45:33;;;;;;;3.33;1.50;;;7.90;90.20;;;;;;5048662;28;20029;-66
2023/04/13 01:48:20;;;;;;;4.87;1.80;;;7.80;90.30;;;;;;5048094;28;20025;-65
2023/04/13 01:50:53;;;;;;;4.65;1.65;;;7.90;90.50;;;;;;5047178;28;20029;-67
2023/04/13 01:53:23;;;;;;;2.42;1.60;;;7.80;90.70;;;;;;5047933;28;20592;-66
2023/04/13 01:55:49;;;;;;;2.85;1.30;;;7.90;90.80;;;;;;5044971;28;20025;-65
2023/04/13 01:58:17;;;;;;;3.08;1.60;;;7.90;90.80;;;;;;5048256;28;20029;-67
2023/04/13 02:00:44;;;;;;;3.17;1.70;;;7.90;91.20;;;;;;5048179;28;20025;-67
2023/04/13 02:03:11;;;;;;;4.05;1.52;;;7.90;91.10;;;;;;5047757;28;20032;-65
2023/04/13 02:05:37;;;;;;;3.95;1.65;;;7.90;91.20;;;;;;5048264;28;20572;-64
2023/04/13 02:08:04;;;;;;;3.20;1.35;;;7.90;91.20;;;;;;5047514;28;20622;-65
2023/04/13 02:10:31;;;;;;;2.28;1.20;;;7.90;91.30;;;;;;5047228;28;20391;-65
2023/04/13 02:12:57;;;;;;;2.88;1.55;;;8.00;91.20;;;;;;5043744;28;20021;-65
2023/04/13 02:15:22;;;;;;;4.03;1.73;;;8.00;91.20;;;;;;5047818;28;20033;-68
2023/04/13 02:17:49;;;;;;;4.53;1.40;;;8.00;91.20;;;;;;5046204;28;20028;-66
2023/04/13 02:20:15;;;;;;;4.80;1.52;;;8.10;91.30;;;;;;5047168;28;20020;-65
2023/04/13 02:22:42;;;;;;;2.47;1.20;;;8.10;91.20;;;;;;5044836;28;20545;-65
2023/04/13 02:25:10;;;;;;;4.10;1.30;;;8.10;91.30;;;;;;5047448;28;20103;-65
2023/04/13 02:27:37;;;;;;;2.00;1.30;;;8.10;91.40;;;;;;5047587;28;20032;-66
2023/04/13 02:30:05;;;;;;;2.67;1.48;;;8.10;91.40;;;;;;5045568;28;20017;-66
2023/04/13 02:32:31;;;;;;;3.47;1.50;;;8.10;91.40;;;;;;5045850;28;20453;-66
2023/04/13 02:34:58;;;;;;;2.20;1.13;;;8.10;91.40;;;;;;5043562;28;20542;-65
2023/04/13 02:37:24;;;;;;;4.30;1.42;;;8.20;91.40;;;;;;5047438;28;20021;-68
2023/04/13 02:39:50;;;;;;;2.65;1.40;;;8.20;91.30;;;;;;5047311;28;20021;-65
2023/04/13 02:42:16;;;;;;;4.65;1.30;;;8.20;91.40;;;;;;5032147;28;20510;-65
2023/04/13 02:44:42;;;;;;;2.30;1.40;;;8.20;91.40;;;;;;5047031;28;20103;-65
2023/04/13 02:47:08;;;;;;;2.88;1.25;;;8.20;91.40;;;;;;5047560;28;20058;-64
2023/04/13 02:49:34;;;;;;;2.05;1.20;;;8.20;91.40;;;;;;5047106;28;20027;-66
2023/04/13 02:52:00;;;;;;;3.88;1.50;;;8.20;91.40;;;;;;5047206;28;20021;-66
2023/04/13 02:54:26;;;;;;;2.90;1.70;;;8.30;91.50;;;;;;5046594;28;20036;-65
2023/04/13 02:56:51;;;;;;;3.70;1.45;;;8.20;91.60;;;;;;5047428;28;20025;-65
2023/04/13 02:59:17;;;;;;;3.80;1.60;;;8.20;91.60;;;;;;5047319;28;20028;-65
2023/04/13 03:01:44;;;;;;;2.67;1.40;;;8.20;91.60;;;;;;5046619;28;20407;-66
2023/04/13 03:04:10;;;;;;;4.40;1.83;;;8.20;91.70;;;;;;5045004;28;20032;-65
2023/04/13 03:06:36;;;;;;;3.70;1.55;;;8.20;91.80;;;;;;5047040;28;20037;-65
2023/04/13 03:09:03;;;;;;;3.42;1.60;;;8.20;91.70;;;;;;5028843;28;20395;-67
2023/04/13 03:11:28;;;;;;;2.80;1.30;;;8.20;91.70;;;;;;5047264;28;20016;-65
2023/04/13 03:13:56;;;;;;;2.70;1.40;;;8.20;91.60;;;;;;5046612;28;20021;-66
2023/04/13 03:16:22;;;;;;;3.85;1.38;;;8.20;91.60;;;;;;5032267;28;20025;-66
2023/04/13 03:18:48;;;;;;;3.45;1.20;;;8.30;91.50;;;;;;5046575;28;20036;-66
2023/04/13 03:21:14;;;;;;;4.05;1.50;;;8.20;91.40;;;;;;5031717;28;20031;-65
2023/04/13 03:23:40;;;;;;;2.30;1.50;;;8.20;91.50;;;;;;5046852;28;20052;-65
2023/04/13 03:26:06;;;;;;;1.73;1.40;;;8.20;91.40;;;;;;5047190;28;20118;-65
2023/04/13 03:28:31;;;;;;;2.22;1.40;;;8.20;91.40;;;;;;5046625;28;20079;-64
2023/04/13 03:30:57;;;;;;;1.55;1.30;;;8.10;91.40;;;;;;5047393;28;20033;-67
2023/04/13 03:33:22;;;;;;;3.17;1.50;;;8.10;91.30;;;;;;5042628;28;20025;-66
2023/04/13 03:35:48;;;;;;;2.13;1.40;;;8.10;91.30;;;;;;5047940;28;20025;-64
2023/04/13 03:38:14;;;;;;;2.00;1.40;;;8.10;91.20;;;;;;5046648;28;20052;-64
2023/04/13 03:40:40;;;;;;;3.63;1.50;;;8.10;91.20;;;;;;5046289;28;20059;-65
2023/04/13 03:43:06;;;;;;;1.95;1.60;;;8.10;91.20;;;;;;5050437;28;20020;-66
2023/04/13 03:45:32;;;;;;;3.15;1.50;;;8.00;91.10;;;;;;5047818;28;20040;-67
2023/04/13 03:47:57;;;;;;;2.75;1.58;;;8.00;91.10;;;;;;5050530;28;20009;-66
2023/04/13 03:50:23;;;;;;;2.55;1.50;;;8.00;91.10;;;;;;5033099;28;20120;-65
2023/04/13 03:52:49;;;;;;;2.05;1.40;;;7.90;91.10;;;;;;5034225;28;20017;-65
2023/04/13 03:55:14;;;;;;;2.97;1.48;;;7.90;91.10;;;;;;5050673;28;20025;-67
2023/04/13 03:57:41;;;;;;;4.32;2.13;;;7.80;91.10;;;;;;5050867;28;20503;-66
2023/04/13 04:00:10;;;;;;;2.38;1.48;;;7.80;91.10;;;;;;5050445;28;20098;-66
2023/04/13 04:02:36;;;;;;;2.08;1.50;;;7.80;91.20;;;;;;5049954;28;20028;-67
2023/04/13 04:05:02;;;;;;;4.78;1.80;;;7.70;91.10;;;;;;5050133;28;20637;-64
2023/04/13 04:07:28;;;;;;;4.57;1.90;;;7.70;91.10;;;;;;5049401;28;20104;-64
2023/04/13 04:09:53;;;;;;;2.45;1.48;;;7.70;91.10;;;;;;5050286;28;20025;-65
2023/04/13 04:12:19;;;;;;;3.88;1.88;;;7.70;91.10;;;;;;5049099;28;20029;-65
2023/04/13 04:14:44;;;;;;;4.05;1.52;;;7.60;91.10;;;;;;5050149;28;20036;-66
2023/04/13 04:17:10;;;;;;;3.20;1.40;;;7.60;91.10;;;;;;5049668;28;20025;-65
2023/04/13 04:19:36;;;;;;;3.50;1.67;;;7.60;91.10;;;;;;5032246;28;20028;-66
2023/04/13 04:22:03;;;;;;;2.92;1.60;;;7.70;91.10;;;;;;5049468;28;20029;-66
2023/04/13 04:24:28;;;;;;;2.78;1.40;;;7.60;91.00;;;;;;5049895;28;20037;-64
2023/04/13 04:26:54;;;;;;;2.50;1.38;;;7.70;91.00;;;;;;5049616;28;20036;-66
2023/04/13 04:29:35;;;;;;;3.22;1.50;;;7.70;91.00;;;;;;5049695;28;20082;-66
2023/04/13 04:32:03;;;;;;;2.47;1.70;;;7.70;90.90;;;;;;5047725;28;20056;-65
2023/04/13 04:34:29;;;;;;;3.45;1.80;;;7.80;90.90;;;;;;5049953;28;20553;-66
2023/04/13 04:36:55;;;;;;;3.58;1.60;;;7.70;90.80;;;;;;5051139;28;20158;-66
2023/04/13 04:39:21;;;;;;;3.92;1.98;;;7.80;90.80;;;;;;5047129;28;20120;-66
2023/04/13 04:41:54;;;;;;;3.80;1.60;;;7.80;90.80;;;;;;5048334;28;20017;-66
2023/04/13 04:44:23;;;;;;;2.80;1.50;;;7.80;90.80;;;;;;5031028;28;20773;-67
2023/04/13 04:46:51;;;;;;;3.55;1.88;;;7.70;90.80;;;;;;5049182;28;20033;-66
2023/04/13 04:49:17;;;;;;;4.55;1.80;;;7.70;90.80;;;;;;5049623;28;20472;-67
2023/04/13 04:51:43;;;;;;;5.93;1.85;;;7.70;90.80;;;;;;5048900;28;20025;-65
2023/04/13 04:54:08;;;;;;;3.38;1.40;;;7.70;90.80;;;;;;5049298;28;20044;-65
2023/04/13 04:56:34;;;;;;;3.50;1.63;;;7.70;91.10;;;;;;5051423;28;20041;-66
2023/04/13 04:58:59;;;;;;;2.78;1.85;;;7.70;90.90;;;;;;5049653;28;20132;-65
2023/04/13 05:01:25;;;;;;;4.18;2.00;;;7.70;90.90;;;;;;5044684;28;21241;-66
2023/04/13 05:03:52;;;;;;;5.47;2.50;;;7.70;91.00;;;;;;5065117;28;20021;-68
2023/04/13 05:06:18;;;;;;;7.05;2.50;;;7.70;91.00;;;;;;5044896;28;20356;-67
2023/04/13 05:08:43;;;;;;;3.63;2.00;;;7.70;91.00;;;;;;5042823;28;20030;-66
2023/04/13 05:11:09;;;;;;;6.60;2.42;;;7.70;91.10;;;;;;5059449;28;20100;-65
2023/04/13 05:13:34;;;;;;;3.97;2.10;;;7.70;91.10;;;;;;5048391;28;20021;-66
2023/04/13 05:16:00;;;;;;;4.78;2.35;;;7.80;91.10;;;;;;5045691;28;20020;-65
2023/04/13 05:18:29;;;;;;;2.90;2.00;;;7.80;91.00;;;;;;5043855;28;20025;-66
2023/04/13 05:20:55;;;;;;;5.90;2.72;;;7.80;91.00;;;;;;5048891;28;20030;-67
2023/04/13 05:23:20;;;;;;;5.63;2.67;;;7.90;91.00;;;;;;5048420;28;20029;-66
2023/04/13 05:25:46;;;;;;;5.15;3.00;;;7.90;90.90;;;;;;5048682;28;20063;-68
2023/04/13 05:28:11;;;;;;;6.13;3.28;;;7.90;90.90;;;;;;5049073;28;20017;-66
2023/04/13 05:30:37;;;;;;;6.25;3.30;;;7.90;90.90;;;;;;5050925;28;20056;-66
2023/04/13 05:33:05;;;;;;;6.38;3.60;;;7.90;91.00;;;;;;5049100;28;20013;-66
2023/04/13 05:35:30;;;;;;;7.72;3.42;;;7.90;91.00;;;;;;5049990;28;20049;-68
2023/04/13 05:37:58;;;;;;;6.00;3.25;;;8.00;91.10;;;;;;5049315;28;20064;-66
2023/04/13 05:40:24;;;;;;;7.53;4.13;;;8.10;91.00;;;;;;5044004;28;20021;-65
2023/04/13 05:42:50;;;;;;;6.60;3.78;;;8.10;90.90;;;;;;5049473;28;20031;-65
2023/04/13 05:45:16;;;;;;;9.32;4.53;;;8.20;90.90;;;;;;5050708;28;20526;-66
2023/04/13 05:47:42;;;;;;;10.52;4.15;;;8.30;90.80;;;;;;5048842;28;20112;-67
2023/04/13 05:50:08;;;;;;;6.78;4.00;;;8.30;90.70;;;;;;5048691;28;20017;-67
2023/04/13 05:52:34;;;;;;;9.07;5.10;;;8.30;90.70;;;;;;5048698;28;20029;-69
2023/04/13 05:55:00;;;;;;;8.15;4.80;;;8.40;90.70;;;;;;5049099;28;20009;-67
2023/04/13 05:57:26;;;;;;;9.50;5.10;;;8.40;90.70;;;;;;5047076;28;20028;-68
2023/04/13 05:59:52;;;;;;;9.88;4.82;;;8.40;90.70;;;;;;5047317;28;20031;-65
2023/04/13 06:02:17;;;;;;;7.78;4.25;;;8.40;90.80;;;;;;5048932;28;20025;-66
2023/04/13 06:04:44;;;;;;;7.97;4.30;;;8.50;90.70;;;;;;5048456;28;20132;-66
2023/04/13 06:07:10;;;;;;;9.50;5.00;;;8.50;90.60;;;;;;5051880;28;20031;-69
2023/04/13 06:09:35;;;;;;;10.93;5.55;;;8.50;90.60;;;;;;5047348;28;20104;-66
2023/04/13 06:12:01;;;;;;;8.63;4.05;;;8.50;90.60;;;;;;5049509;28;20028;-66
2023/04/13 06:14:27;;;;;;;6.85;3.72;;;8.50;90.60;;;;;;5045866;28;20116;-66
2023/04/13 06:16:52;;;;;;;6.47;3.67;;;8.50;90.50;;;;;;5049654;28;20017;-69
2023/04/13 06:19:18;;;;;;;10.32;5.10;;;8.50;90.60;;;;;;5056324;28;20017;-67
2023/04/13 06:21:43;;;;;;;8.05;4.10;;;8.50;90.60;;;;;;5049068;28;20036;-66
2023/04/13 06:24:09;;;;;;;7.75;4.15;;;8.50;90.70;;;;;;5047457;28;20502;-66
2023/04/13 06:26:36;;;;;;;8.80;4.25;;;8.50;90.70;;;;;;5045562;28;20025;-67
2023/04/13 06:29:02;;;;;;;7.95;4.80;;;8.40;90.70;;;;;;5047684;28;20049;-67
2023/04/13 06:31:28;;;;;;;6.65;4.32;;;8.40;90.80;;;;;;5049023;28;20028;-66
2023/04/13 06:33:54;;;;;;;11.55;5.68;;;8.40;90.90;;;;;;5045118;28;20045;-66
2023/04/13 06:36:19;;;;;;;6.85;4.50;;;8.40;90.90;;;;;;5051611;28;20024;-66
2023/04/13 06:38:45;;;;;;;9.27;5.72;;;8.40;90.90;;;;;;5047115;28;20048;-68
2023/04/13 06:41:10;;;;;;;11.27;6.63;;;8.40;91.00;;;;;;5047989;28;20025;-66
2023/04/13 06:43:36;;;;;;;6.70;4.45;;;8.30;91.10;;;;;;5043468;28;20071;-66
2023/04/13 06:46:03;;;;;;;6.35;4.25;;;8.30;91.10;;;;;;5029715;28;20520;-67
2023/04/13 06:48:29;;;;;;;7.53;4.10;;;8.30;91.10;;;;;;5047250;28;20036;-68
2023/04/13 06:50:55;;;;;;;5.68;3.40;;;8.30;91.00;;;;;;5044752;28;20464;-66
2023/04/13 06:53:21;;;;;;;5.13;2.90;;;8.30;91.00;;;;;;5046193;28;20025;-65
2023/04/13 06:55:47;;;;;;;4.60;2.67;;;8.30;90.90;;;;;;5046902;28;20021;-66
2023/04/13 06:58:13;;;;;;;4.13;2.17;;;8.40;90.80;;;;;;5051852;28;20060;-65
2023/04/13 07:00:38;;;;;;;15.27;9.82;;;8.40;90.70;;;;;;5049492;28;20036;-67
2023/04/13 07:03:04;;;;;;;6.45;4.20;;;8.40;90.60;;;;;;5050280;28;20031;-67
2023/04/13 07:05:30;;;;;;;4.93;2.80;;;8.40;90.60;;;;;;5051073;28;20111;-68
2023/04/13 07:07:56;;;;;;;5.57;2.72;;;8.40;90.60;;;;;;5046015;28;20368;-67
2023/04/13 07:10:22;;;;;;;6.05;2.90;;;8.40;90.60;;;;;;5051552;28;20032;-66
2023/04/13 07:12:47;;;;;;;4.65;3.00;;;8.50;90.60;;;;;;5049374;28;20017;-66
2023/04/13 07:15:14;;;;;;;6.63;4.00;;;8.50;90.60;;;;;;5046089;28;20037;-67
2023/04/13 07:17:39;;;;;;;3.78;2.50;;;8.50;90.60;;;;;;5046440;28;20376;-66
2023/04/13 07:20:06;;;;;;;4.72;2.90;;;8.50;90.60;;;;;;5048820;28;20044;-67
2023/04/13 07:22:32;;;;;;;4.72;2.88;;;8.50;90.60;;;;;;5052147;28;20074;-66
2023/04/13 07:24:58;;;;;;;5.05;2.80;;;8.50;90.70;;;;;;5053951;28;20052;-66
2023/04/13 07:27:24;;;;;;;5.38;2.88;;;8.50;90.80;;;;;;5051043;28;20029;-67
2023/04/13 07:29:53;;;;;;;5.30;2.80;;;8.50;90.80;;;;;;5046669;28;20587;-66
2023/04/13 07:32:19;;;;;;;4.03;2.75;;;8.50;90.90;;;;;;5049052;28;20036;-66
2023/04/13 07:34:45;;;;;;;4.78;2.50;;;8.40;90.90;;;;;;5051675;28;20017;-67
2023/04/13 07:37:11;;;;;;;5.53;2.92;;;8.50;91.00;;;;;;5053073;28;20025;-66
2023/04/13 07:39:36;;;;;;;4.32;2.35;;;8.50;91.10;;;;;;5054605;28;20553;-66
2023/04/13 07:42:02;;;;;;;4.78;3.20;;;8.50;91.20;;;;;;5049165;28;20041;-67
2023/04/13 07:44:29;;;;;;;6.95;3.22;;;8.60;91.20;;;;;;5049091;28;20036;-66
2023/04/13 07:46:55;;;;;;;5.00;2.83;;;8.70;91.30;;;;;;5051300;28;20052;-67
2023/04/13 07:49:22;;;;;;;5.85;2.78;;;8.80;91.30;;;;;;5047896;28;20047;-67
2023/04/13 07:51:48;;;;;;;6.05;2.90;;;8.70;91.20;;;;;;5045685;28;20033;-67
2023/04/13 07:54:15;;;;;;;7.10;2.88;;;8.80;91.20;;;;;;5045899;28;20017;-67
2023/04/13 07:56:40;;;;;;;5.18;3.05;;;8.80;91.20;;;;;;5042865;28;20033;-66
2023/04/13 07:59:06;;;;;;;4.10;2.45;;;8.80;91.20;;;;;;5047757;28;20025;-66
2023/04/13 08:01:31;;;;;;;5.18;2.50;;;8.80;91.30;;;;;;5051794;28;20545;-67
2023/04/13 08:03:57;;;;;;;5.68;2.60;;;8.80;91.30;;;;;;5054894;28;20033;-66
2023/04/13 08:06:23;;;;;;;4.95;2.28;;;8.80;91.40;;;;;;5054140;28;20024;-66
2023/04/13 08:08:48;;;;;;;5.97;2.20;;;8.80;91.40;;;;;;5041668;28;20032;-65
2023/04/13 08:11:15;;;;;;;4.97;2.13;;;8.90;91.40;;;;;;5047033;28;20025;-66
2023/04/13 08:13:41;;;;;;;5.32;2.38;;;9.00;91.40;;;;;;5053201;28;20036;-65
2023/04/13 08:16:07;;;;;;;6.28;3.10;;;9.00;91.30;;;;;;5034794;28;20021;-69
2023/04/13 08:18:33;;;;;;;7.45;3.78;;;9.00;91.20;;;;;;5053252;28;20139;-67
2023/04/13 08:20:58;;;;;;;7.97;3.63;;;9.10;91.20;;;;;;5050731;28;20112;-66
2023/04/13 08:23:24;;;;;;;5.95;2.72;;;9.20;91.20;;;;;;5045243;28;20442;-68
2023/04/13 08:25:50;;;;;;;5.32;2.55;;;9.20;91.10;;;;;;5047516;28;20036;-66
2023/04/13 08:28:16;;;;;;;5.10;2.70;;;9.30;91.10;;;;;;5049487;28;20036;-66
2023/04/13 08:30:41;;;;;;;8.63;2.80;;;9.30;91.10;;;;;;5047765;28;20446;-66
2023/04/13 08:33:07;;;;;;;10.80;3.45;;;9.40;91.00;;;;;;5023274;28;20041;-66
2023/04/13 08:35:37;;;;;;;9.93;3.22;;;9.40;91.00;;;;;;5045837;28;20507;-66
2023/04/13 08:38:04;;;;;;;6.22;2.50;;;9.30;91.10;;;;;;5046231;28;20025;-65
2023/04/13 08:40:31;;;;;;;8.32;2.38;;;9.20;91.00;;;;;;5048143;28;20025;-66
2023/04/13 08:42:59;;;;;;;6.75;2.30;;;9.20;91.00;;;;;;5045087;28;20033;-65
2023/04/13 08:45:25;;;;;;;7.43;2.40;;;9.20;91.00;;;;;;5059368;28;20361;-66
2023/04/13 08:47:51;;;;;;;5.97;2.50;;;9.30;91.00;;;;;;5060094;28;20022;-67
2023/04/13 08:50:17;;;;;;;7.10;3.28;;;9.30;91.00;;;;;;5047967;28;20021;-65
2023/04/13 08:52:42;;;;;;;8.30;2.83;;;9.40;91.10;;;;;;5043987;28;20018;-66
2023/04/13 08:55:08;;;;;;;8.38;2.85;;;9.50;91.10;;;;;;5047289;28;20021;-66
2023/04/13 08:57:36;;;;;;;9.10;2.67;;;9.60;91.10;;;;;;5046322;28;20543;-66
2023/04/13 09:00:10;;;;;;;9.52;2.90;;;9.70;91.10;;;;;;5042340;28;20072;-68
2023/04/13 09:02:38;;;;;;;6.03;2.50;;;9.80;91.00;;;;;;5049557;28;20052;-68
2023/04/13 09:05:12;;;;;;;10.73;2.80;;;9.90;91.20;;;;;;5046140;28;20040;-66
2023/04/13 09:07:38;;;;;;;6.05;2.25;;;10.00;90.70;;;;;;5042841;28;20565;-66
2023/04/13 09:10:06;;;;;;;10.38;3.15;;;10.10;90.70;;;;;;5048085;28;20021;-67
2023/04/13 09:12:33;;;;;;;10.55;2.65;;;10.10;90.60;;;;;;5046666;28;20647;-66
2023/04/13 09:14:59;;;;;;;9.23;2.65;;;10.20;90.50;;;;;;5047245;28;20407;-65
2023/04/13 09:17:31;;;;;;;11.10;3.00;;;10.20;90.40;;;;;;5044327;28;20029;-66
2023/04/13 09:20:10;;;;;;;10.15;2.45;;;10.20;90.30;;;;;;5048721;28;20535;-66
2023/04/13 09:22:36;;;;;;;8.95;2.92;;;10.20;90.30;;;;;;5050765;28;20044;-65
2023/04/13 09:25:04;;;;;;;7.40;2.83;;;10.20;90.20;;;;;;5049425;28;20037;-67
2023/04/13 09:27:29;;;;;;;7.80;2.30;;;10.20;90.20;;;;;;5049707;28;20029;-66
2023/04/13 09:29:56;;;;;;;10.00;2.22;;;10.30;90.00;;;;;;5030095;28;20021;-67
2023/04/13 09:32:23;;;;;;;9.80;2.53;;;10.40;89.60;;;;;;5049031;28;20025;-67
2023/04/13 09:35:08;;;;;;;11.45;2.30;;;10.50;89.30;;;;;;5045682;28;20056;-66
2023/04/13 09:37:35;;;;;;;6.50;2.40;;;10.40;88.80;;;;;;5048902;28;20108;-67
2023/04/13 09:40:15;;;;;;;8.25;2.20;;;10.30;88.40;;;;;;5048341;28;20021;-66
2023/04/13 09:42:52;;;;;;;7.65;2.15;;;10.20;88.70;;;;;;5049153;28;20079;-69
2023/04/13 09:45:18;;;;;;;7.82;2.50;;;10.20;89.00;;;;;;5042760;28;20017;-67
2023/04/13 09:47:44;;;;;;;10.32;2.67;;;10.20;89.00;;;;;;5048493;28;20041;-66
2023/04/13 09:50:27;;;;;;;8.10;2.13;;;10.10;89.20;;;;;;5046103;28;20021;-68
2023/04/13 09:53:06;;;;;;;8.13;2.40;;;10.10;89.40;;;;;;5047120;28;20089;-66
2023/04/13 09:55:33;;;;;;;9.20;2.88;;;10.00;89.60;;;;;;5045975;28;20541;-66
2023/04/13 09:58:12;;;;;;;7.55;2.20;;;9.90;89.80;;;;;;5050651;28;20041;-67
2023/04/13 10:00:40;;;;;;;8.40;2.17;;;9.90;90.30;;;;;;5046675;28;20031;-66
2023/04/13 10:03:12;;;;;;;8.77;2.22;;;9.90;90.10;;;;;;5048479;28;20379;-65
2023/04/13 10:05:39;;;;;;;10.30;2.75;;;9.90;90.10;;;;;;5049051;28;20038;-65
2023/04/13 10:08:05;;;;;;;8.48;2.78;;;10.00;90.20;;;;;;5047528;28;20029;-68
2023/04/13 10:10:38;;;;;;;11.40;2.67;;;10.20;90.20;;;;;;5052141;28;20024;-65
2023/04/13 10:13:16;;;;;;;8.07;2.55;;;10.40;90.10;;;;;;5048003;28;20029;-67
2023/04/13 10:16:05;;;;;;;9.13;2.58;;;10.60;89.90;;;;;;5048789;28;20383;-67
2023/04/13 10:18:56;;;;;;;9.65;2.55;;;10.90;89.30;;;;;;5041452;28;20488;-65
2023/04/13 10:21:24;;;;;;;10.32;3.08;;;11.10;88.20;;;;;;5048493;28;20054;-67
2023/04/13 10:23:50;;;;;;;8.93;2.67;;;11.20;86.80;;;;;;5051499;28;20032;-66
2023/04/13 10:26:16;;;;;;;10.05;2.50;;;11.30;86.00;;;;;;5049408;28;20071;-67
2023/04/13 10:28:43;;;;;;;10.13;2.65;;;11.40;85.00;;;;;;5048329;28;20083;-65
2023/04/13 10:31:09;;;;;;;7.90;2.63;;;11.50;84.40;;;;;;5039617;28;20024;-67
2023/04/13 10:33:49;;;;;;;10.05;2.20;;;11.50;83.60;;;;;;5046530;28;20033;-67
2023/04/13 10:36:14;;;;;;;9.80;2.33;;;11.60;82.70;;;;;;5050563;28;20017;-68
2023/04/13 10:38:46;;;;;;;11.77;2.28;;;11.70;82.70;;;;;;5051970;28;20032;-67
2023/04/13 10:41:25;;;;;;;10.13;2.88;;;11.80;82.00;;;;;;5051836;28;20102;-67
2023/04/13 10:44:05;;;;;;;9.15;2.70;;;11.90;81.30;;;;;;5047397;28;20017;-67
2023/04/13 10:46:33;;;;;;;7.60;2.10;;;11.90;80.50;;;;;;5048548;28;20021;-67
2023/04/13 10:48:59;;;;;;;9.45;2.22;;;12.00;80.40;;;;;;5052672;28;20025;-68
2023/04/13 10:51:26;;;;;;;8.57;2.13;;;12.00;79.90;;;;;;5053106;28;20013;-66
2023/04/13 10:54:02;;;;;;;11.57;2.30;;;11.90;79.00;;;;;;5048299;28;20121;-67
2023/04/13 10:56:27;;;;;;;6.90;2.25;;;11.90;78.90;;;;;;5057755;28;20014;-69
2023/04/13 10:58:53;;;;;;;12.27;2.58;;;11.90;79.10;;;;;;5054566;28;20031;-66
2023/04/13 11:01:19;;;;;;;6.57;2.13;;;12.00;79.30;;;;;;5050799;28;20045;-66
2023/04/13 11:03:46;;;;;;;8.98;2.35;;;12.10;79.60;;;;;;5052425;28;20029;-66
2023/04/13 11:06:11;;;;;;;9.10;2.25;;;12.20;79.20;;;;;;5053061;28;20116;-68
2023/04/13 11:08:38;;;;;;;9.20;2.33;;;12.20;78.70;;;;;;5052014;28;20104;-66
2023/04/13 11:11:04;;;;;;;9.63;2.17;;;12.10;78.50;;;;;;5049213;28;20025;-68
2023/04/13 11:13:31;;;;;;;11.15;2.72;;;12.20;78.90;;;;;;5054737;28;20120;-68
2023/04/13 11:16:03;;;;;;;7.97;2.00;;;12.30;78.90;;;;;;5052203;28;20105;-67
2023/04/13 11:18:29;;;;;;;9.50;2.58;;;12.40;77.90;;;;;;5053217;28;20487;-66
2023/04/13 11:20:55;;;;;;;9.95;2.42;;;12.50;77.10;;;;;;5051993;28;20079;-67
2023/04/13 11:23:22;;;;;;;8.43;2.42;;;12.50;75.80;;;;;;5052762;28;20078;-67
2023/04/13 11:25:59;;;;;;;8.05;2.38;;;12.40;75.50;;;;;;5055728;28;20124;-69
2023/04/13 11:28:37;;;;;;;9.43;2.28;;;12.30;74.80;;;;;;5052008;28;20116;-66
2023/04/13 11:31:03;;;;;;;7.68;1.85;;;12.30;75.20;;;;;;5046569;28;20038;-71
2023/04/13 11:33:30;;;;;;;7.45;2.05;;;12.40;74.90;;;;;;5046497;28;20025;-68
2023/04/13 11:36:00;;;;;;;5.95;2.25;;;12.60;74.20;;;;;;5050252;28;20025;-66
2023/04/13 11:38:27;;;;;;;9.32;2.10;;;12.70;73.00;;;;;;5051181;28;20029;-66
2023/04/13 11:41:00;;;;;;;5.45;1.80;;;12.60;72.40;;;;;;5049031;28;20054;-68
2023/04/13 11:43:25;;;;;;;7.40;2.35;;;12.80;72.30;;;;;;5051695;28;20380;-69
2023/04/13 11:45:52;;;;;;;8.85;2.20;;;12.90;71.70;;;;;;5049379;28;20032;-66
2023/04/13 11:48:18;;;;;;;7.78;2.13;;;12.90;70.70;;;;;;5050823;28;20098;-69
2023/04/13 11:50:44;;;;;;;7.13;2.00;;;12.90;69.30;;;;;;5045384;28;20029;-67
2023/04/13 11:53:10;;;;;;;6.03;2.00;;;12.80;69.40;;;;;;5049835;28;20044;-66
2023/04/13 11:55:37;;;;;;;9.18;2.20;;;12.80;69.30;;;;;;5050707;28;20036;-66
2023/04/13 11:58:10;;;;;;;9.48;2.22;;;12.80;69.20;;;;;;5051999;28;20075;-66
2023/04/13 12:00:40;;;;;;;8.02;2.10;;;12.80;68.90;;;;;;5050873;28;20025;-67
2023/04/13 12:03:15;;;;;;;5.32;2.00;;;12.80;68.80;;;;;;5054554;28;20058;-67
2023/04/13 12:05:42;;;;;;;7.03;1.77;;;12.90;68.90;;;;;;5048819;28;20164;-69
2023/04/13 12:08:08;;;;;;;8.55;1.90;;;12.90;68.20;;;;;;5051174;28;20041;-66
2023/04/13 12:10:35;;;;;;;6.90;1.80;;;12.90;67.70;;;;;;5052945;28;20024;-66
2023/04/13 12:13:07;;;;;;;6.80;2.00;;;13.00;67.90;;;;;;5050755;28;20033;-67
2023/04/13 12:15:34;;;;;;;;;;;13.10;67.40;;;;;;5049898;28;20027;-67
2023/04/13 12:18:01;;;;;;;7.68;1.85;;;13.00;66.50;;;;;;5047623;28;19962;-67
2023/04/13 12:20:38;;;;;;;7.90;2.10;;;12.90;66.70;;;;;;5055247;28;20111;-69
2023/04/13 12:23:20;;;;;;;7.03;1.92;;;12.90;66.90;;;;;;5047445;28;20492;-68
2023/04/13 12:26:07;;;;;;;5.72;1.77;;;12.90;67.10;;;;;;5052148;28;20067;-69
2023/04/13 12:28:35;;;;;;;7.75;2.00;;;12.90;66.40;;;;;;5056038;28;20446;-67
2023/04/13 12:31:06;;;;;;;7.22;2.08;;;12.90;66.50;;;;;;5049958;28;20091;-67
2023/04/13 12:33:33;;;;;;;7.55;2.03;;;13.00;66.20;;;;;;5051227;28;20488;-68
2023/04/13 12:35:58;;;;;;;6.30;1.80;;;12.90;65.40;;;;;;5049725;28;20103;-67
2023/04/13 12:38:25;;;;;;;8.00;1.90;;;12.90;65.60;;;;;;5050611;28;20108;-69
2023/04/13 12:40:58;;;;;;;5.57;1.95;;;12.80;65.40;;;;;;5054093;28;20017;-67
2023/04/13 12:43:25;;;;;;;4.57;1.80;;;12.80;65.40;;;;;;5050172;28;20536;-68
2023/04/13 12:45:51;;;;;;;6.95;2.22;;;12.90;65.30;;;;;;5045205;28;20025;-68
2023/04/13 12:48:17;;;;;;;9.27;1.73;;;13.10;65.20;;;;;;5049275;28;20025;-67
2023/04/13 12:50:43;;;;;;;5.85;2.08;;;13.30;65.20;;;;;;5050678;28;20062;-68
2023/04/13 12:53:10;;;;;;;7.65;1.85;;;13.30;64.50;;;;;;5033033;28;20035;-67
2023/04/13 12:55:36;;;;;;;6.97;2.13;;;13.40;64.30;;;;;;5051748;28;20387;-66